sensor_id;sensor_type;location;lat;lon;timestamp;P1;durP1;ratioP1;P2;durP2;ratioP2
31990;SDS011;18508;49.386;8.370;2022-10-30T00:01:36;23.98;;;12.93;;
31990;SDS011;18508;49.386;8.370;2022-10-30T00:04:05;19.50;;;12.10;;
31990;SDS011;18508;49.386;8.370;2022-10-30T00:06:33;22.13;;;12.20;;
31990;SDS011;18508;49.386;8.370;2022-10-30T00:09:02;18.20;;;11.10;;
31990;SDS011;18508;49.386;8.370;2022-10-30T00:11:31;22.95;;;11.50;;
31990;SDS011;18508;49.386;8.370;2022-10-30T00:13:59;22.05;;;11.95;;
31990;SDS011;18508;49.386;8.370;2022-10-30T00:16:27;22.23;;;11.65;;
31990;SDS011;18508;49.386;8.370;2022-10-30T00:18:57;22.98;;;13.02;;
31990;SDS011;18508;49.386;8.370;2022-10-30T00:21:26;20.13;;;12.00;;
31990;SDS011;18508;49.386;8.370;2022-10-30T00:23:54;19.02;;;11.95;;
31990;SDS011;18508;49.386;8.370;2022-10-30T00:26:22;23.77;;;12.43;;
31990;SDS011;18508;49.386;8.370;2022-10-30T00:28:53;20.42;;;11.52;;
31990;SDS011;18508;49.386;8.370;2022-10-30T00:31:23;24.00;;;12.50;;
31990;SDS011;18508;49.386;8.370;2022-10-30T00:33:52;20.40;;;12.55;;
31990;SDS011;18508;49.386;8.370;2022-10-30T00:36:24;25.08;;;12.57;;
31990;SDS011;18508;49.386;8.370;2022-10-30T00:38:52;26.40;;;13.50;;
31990;SDS011;18508;49.386;8.370;2022-10-30T00:41:22;25.85;;;13.20;;
31990;SDS011;18508;49.386;8.370;2022-10-30T00:43:52;25.90;;;13.68;;
31990;SDS011;18508;49.386;8.370;2022-10-30T00:46:23;25.58;;;13.80;;
31990;SDS011;18508;49.386;8.370;2022-10-30T00:48:55;23.02;;;13.52;;
31990;SDS011;18508;49.386;8.370;2022-10-30T00:51:31;23.77;;;13.57;;
31990;SDS011;18508;49.386;8.370;2022-10-30T00:54:02;20.45;;;13.18;;
31990;SDS011;18508;49.386;8.370;2022-10-30T00:56:32;24.02;;;13.65;;
31990;SDS011;18508;49.386;8.370;2022-10-30T00:59:05;26.85;;;13.30;;
31990;SDS011;18508;49.386;8.370;2022-10-30T01:01:37;24.98;;;13.60;;
31990;SDS011;18508;49.386;8.370;2022-10-30T01:04:09;21.50;;;14.30;;
31990;SDS011;18508;49.386;8.370;2022-10-30T01:06:40;21.40;;;12.30;;
31990;SDS011;18508;49.386;8.370;2022-10-30T01:09:13;24.50;;;13.40;;
31990;SDS011;18508;49.386;8.370;2022-10-30T01:11:42;24.80;;;12.65;;
31990;SDS011;18508;49.386;8.370;2022-10-30T01:14:10;26.00;;;13.60;;
31990;SDS011;18508;49.386;8.370;2022-10-30T01:16:43;22.90;;;12.32;;
31990;SDS011;18508;49.386;8.370;2022-10-30T01:19:24;23.80;;;12.98;;
31990;SDS011;18508;49.386;8.370;2022-10-30T01:22:05;22.27;;;13.95;;
31990;SDS011;18508;49.386;8.370;2022-10-30T01:24:45;23.17;;;12.82;;
31990;SDS011;18508;49.386;8.370;2022-10-30T01:27:25;23.85;;;13.63;;
31990;SDS011;18508;49.386;8.370;2022-10-30T01:30:04;20.58;;;12.82;;
31990;SDS011;18508;49.386;8.370;2022-10-30T01:32:48;23.15;;;12.45;;
31990;SDS011;18508;49.386;8.370;2022-10-30T01:35:27;23.90;;;11.55;;
31990;SDS011;18508;49.386;8.370;2022-10-30T01:38:07;25.35;;;11.45;;
31990;SDS011;18508;49.386;8.370;2022-10-30T01:40:42;17.27;;;11.25;;
31990;SDS011;18508;49.386;8.370;2022-10-30T01:43:10;21.08;;;12.57;;
31990;SDS011;18508;49.386;8.370;2022-10-30T01:45:44;20.50;;;11.95;;
31990;SDS011;18508;49.386;8.370;2022-10-30T01:51:14;18.92;;;11.45;;
31990;SDS011;18508;49.386;8.370;2022-10-30T01:53:55;17.63;;;11.35;;
31990;SDS011;18508;49.386;8.370;2022-10-30T01:56:33;20.95;;;12.15;;
31990;SDS011;18508;49.386;8.370;2022-10-30T01:59:06;20.42;;;11.38;;
31990;SDS011;18508;49.386;8.370;2022-10-30T02:01:39;19.55;;;11.43;;
31990;SDS011;18508;49.386;8.370;2022-10-30T02:04:10;23.05;;;12.80;;
31990;SDS011;18508;49.386;8.370;2022-10-30T02:06:39;24.90;;;12.23;;
31990;SDS011;18508;49.386;8.370;2022-10-30T02:09:09;25.30;;;12.93;;
31990;SDS011;18508;49.386;8.370;2022-10-30T02:11:37;23.33;;;11.93;;
31990;SDS011;18508;49.386;8.370;2022-10-30T02:14:06;24.45;;;13.10;;
31990;SDS011;18508;49.386;8.370;2022-10-30T02:16:36;20.48;;;12.30;;
31990;SDS011;18508;49.386;8.370;2022-10-30T02:19:09;20.13;;;11.68;;
31990;SDS011;18508;49.386;8.370;2022-10-30T02:21:38;21.95;;;11.25;;
31990;SDS011;18508;49.386;8.370;2022-10-30T02:24:07;19.85;;;12.15;;
31990;SDS011;18508;49.386;8.370;2022-10-30T02:26:36;23.25;;;12.57;;
31990;SDS011;18508;49.386;8.370;2022-10-30T02:29:04;20.52;;;12.50;;
31990;SDS011;18508;49.386;8.370;2022-10-30T02:31:33;26.13;;;13.73;;
31990;SDS011;18508;49.386;8.370;2022-10-30T02:34:02;21.80;;;13.02;;
31990;SDS011;18508;49.386;8.370;2022-10-30T02:36:32;24.63;;;12.25;;
31990;SDS011;18508;49.386;8.370;2022-10-30T02:39:01;23.38;;;12.40;;
31990;SDS011;18508;49.386;8.370;2022-10-30T02:41:30;20.95;;;11.80;;
31990;SDS011;18508;49.386;8.370;2022-10-30T02:43:58;19.70;;;11.88;;
31990;SDS011;18508;49.386;8.370;2022-10-30T02:46:28;22.30;;;11.52;;
31990;SDS011;18508;49.386;8.370;2022-10-30T02:48:56;23.00;;;11.82;;
31990;SDS011;18508;49.386;8.370;2022-10-30T02:51:24;20.83;;;12.05;;
31990;SDS011;18508;49.386;8.370;2022-10-30T02:53:52;21.85;;;11.68;;
31990;SDS011;18508;49.386;8.370;2022-10-30T02:56:22;21.60;;;12.10;;
31990;SDS011;18508;49.386;8.370;2022-10-30T02:58:50;22.92;;;12.68;;
31990;SDS011;18508;49.386;8.370;2022-10-30T03:01:19;20.30;;;12.15;;
31990;SDS011;18508;49.386;8.370;2022-10-30T03:03:47;24.27;;;11.68;;
31990;SDS011;18508;49.386;8.370;2022-10-30T03:06:15;25.75;;;12.45;;
31990;SDS011;18508;49.386;8.370;2022-10-30T03:08:46;20.65;;;12.10;;
31990;SDS011;18508;49.386;8.370;2022-10-30T03:11:16;23.33;;;12.10;;
31990;SDS011;18508;49.386;8.370;2022-10-30T03:13:51;24.33;;;12.07;;
31990;SDS011;18508;49.386;8.370;2022-10-30T03:16:20;23.75;;;11.93;;
31990;SDS011;18508;49.386;8.370;2022-10-30T03:18:50;20.00;;;11.57;;
31990;SDS011;18508;49.386;8.370;2022-10-30T03:21:20;24.65;;;12.65;;
31990;SDS011;18508;49.386;8.370;2022-10-30T03:23:52;23.55;;;11.52;;
31990;SDS011;18508;49.386;8.370;2022-10-30T03:26:21;19.85;;;11.82;;
31990;SDS011;18508;49.386;8.370;2022-10-30T03:28:51;21.58;;;12.20;;
31990;SDS011;18508;49.386;8.370;2022-10-30T03:31:19;20.35;;;11.68;;
31990;SDS011;18508;49.386;8.370;2022-10-30T03:33:48;22.52;;;12.27;;
31990;SDS011;18508;49.386;8.370;2022-10-30T03:36:16;25.42;;;12.80;;
31990;SDS011;18508;49.386;8.370;2022-10-30T03:38:44;23.52;;;12.60;;
31990;SDS011;18508;49.386;8.370;2022-10-30T03:41:12;22.83;;;12.48;;
31990;SDS011;18508;49.386;8.370;2022-10-30T03:43:40;25.63;;;13.35;;
31990;SDS011;18508;49.386;8.370;2022-10-30T03:46:10;27.45;;;13.68;;
31990;SDS011;18508;49.386;8.370;2022-10-30T03:48:38;24.38;;;13.20;;
31990;SDS011;18508;49.386;8.370;2022-10-30T03:51:09;25.08;;;11.93;;
31990;SDS011;18508;49.386;8.370;2022-10-30T03:53:37;30.80;;;13.15;;
31990;SDS011;18508;49.386;8.370;2022-10-30T03:56:06;24.75;;;12.20;;
31990;SDS011;18508;49.386;8.370;2022-10-30T03:58:36;21.52;;;12.13;;
31990;SDS011;18508;49.386;8.370;2022-10-30T04:01:05;25.95;;;12.55;;
31990;SDS011;18508;49.386;8.370;2022-10-30T04:03:35;20.92;;;11.27;;
31990;SDS011;18508;49.386;8.370;2022-10-30T04:06:04;21.63;;;12.50;;
31990;SDS011;18508;49.386;8.370;2022-10-30T04:08:33;22.40;;;11.55;;
31990;SDS011;18508;49.386;8.370;2022-10-30T04:11:08;23.98;;;12.05;;
31990;SDS011;18508;49.386;8.370;2022-10-30T04:13:36;20.27;;;11.82;;
31990;SDS011;18508;49.386;8.370;2022-10-30T04:16:05;21.17;;;11.95;;
31990;SDS011;18508;49.386;8.370;2022-10-30T04:18:35;20.15;;;11.68;;
31990;SDS011;18508;49.386;8.370;2022-10-30T04:21:05;21.90;;;11.93;;
31990;SDS011;18508;49.386;8.370;2022-10-30T04:23:33;22.30;;;12.70;;
31990;SDS011;18508;49.386;8.370;2022-10-30T04:26:02;19.23;;;12.50;;
31990;SDS011;18508;49.386;8.370;2022-10-30T04:28:30;22.60;;;11.73;;
31990;SDS011;18508;49.386;8.370;2022-10-30T04:30:58;22.25;;;12.20;;
31990;SDS011;18508;49.386;8.370;2022-10-30T04:33:28;21.88;;;11.65;;
31990;SDS011;18508;49.386;8.370;2022-10-30T04:35:57;21.98;;;12.18;;
31990;SDS011;18508;49.386;8.370;2022-10-30T04:38:25;22.83;;;12.15;;
31990;SDS011;18508;49.386;8.370;2022-10-30T04:40:53;24.98;;;11.70;;
31990;SDS011;18508;49.386;8.370;2022-10-30T04:43:22;21.95;;;12.13;;
31990;SDS011;18508;49.386;8.370;2022-10-30T04:45:50;22.08;;;11.90;;
31990;SDS011;18508;49.386;8.370;2022-10-30T04:48:18;21.67;;;12.57;;
31990;SDS011;18508;49.386;8.370;2022-10-30T04:50:47;21.20;;;11.52;;
31990;SDS011;18508;49.386;8.370;2022-10-30T04:53:17;22.40;;;11.52;;
31990;SDS011;18508;49.386;8.370;2022-10-30T04:55:46;25.25;;;11.85;;
31990;SDS011;18508;49.386;8.370;2022-10-30T05:00:49;25.02;;;11.65;;
31990;SDS011;18508;49.386;8.370;2022-10-30T05:03:18;22.02;;;11.80;;
31990;SDS011;18508;49.386;8.370;2022-10-30T05:05:54;23.63;;;11.63;;
31990;SDS011;18508;49.386;8.370;2022-10-30T05:08:25;23.30;;;11.40;;
31990;SDS011;18508;49.386;8.370;2022-10-30T05:10:55;25.70;;;12.38;;
31990;SDS011;18508;49.386;8.370;2022-10-30T05:13:24;20.48;;;11.40;;
31990;SDS011;18508;49.386;8.370;2022-10-30T05:15:52;22.33;;;12.65;;
31990;SDS011;18508;49.386;8.370;2022-10-30T05:18:21;23.00;;;11.63;;
31990;SDS011;18508;49.386;8.370;2022-10-30T05:20:50;22.63;;;11.50;;
31990;SDS011;18508;49.386;8.370;2022-10-30T05:23:18;18.88;;;11.00;;
31990;SDS011;18508;49.386;8.370;2022-10-30T05:25:48;20.10;;;11.10;;
31990;SDS011;18508;49.386;8.370;2022-10-30T05:28:16;21.48;;;11.27;;
31990;SDS011;18508;49.386;8.370;2022-10-30T05:30:45;20.05;;;11.00;;
31990;SDS011;18508;49.386;8.370;2022-10-30T05:33:13;24.83;;;12.10;;
31990;SDS011;18508;49.386;8.370;2022-10-30T05:35:43;19.75;;;11.13;;
31990;SDS011;18508;49.386;8.370;2022-10-30T05:38:13;26.40;;;12.25;;
31990;SDS011;18508;49.386;8.370;2022-10-30T05:40:44;24.50;;;13.48;;
31990;SDS011;18508;49.386;8.370;2022-10-30T05:43:14;29.27;;;13.32;;
31990;SDS011;18508;49.386;8.370;2022-10-30T05:45:47;21.38;;;12.15;;
31990;SDS011;18508;49.386;8.370;2022-10-30T05:48:15;29.35;;;13.23;;
31990;SDS011;18508;49.386;8.370;2022-10-30T05:50:45;23.77;;;13.10;;
31990;SDS011;18508;49.386;8.370;2022-10-30T05:53:13;27.20;;;13.00;;
31990;SDS011;18508;49.386;8.370;2022-10-30T05:55:42;25.55;;;13.25;;
31990;SDS011;18508;49.386;8.370;2022-10-30T05:58:12;30.02;;;13.52;;
31990;SDS011;18508;49.386;8.370;2022-10-30T06:00:42;22.30;;;12.93;;
31990;SDS011;18508;49.386;8.370;2022-10-30T06:03:11;24.17;;;13.48;;
31990;SDS011;18508;49.386;8.370;2022-10-30T06:05:42;23.67;;;13.38;;
31990;SDS011;18508;49.386;8.370;2022-10-30T06:08:13;21.63;;;12.32;;
31990;SDS011;18508;49.386;8.370;2022-10-30T06:10:43;24.58;;;12.52;;
31990;SDS011;18508;49.386;8.370;2022-10-30T06:13:11;19.00;;;11.27;;
31990;SDS011;18508;49.386;8.370;2022-10-30T06:15:44;20.77;;;13.00;;
31990;SDS011;18508;49.386;8.370;2022-10-30T06:18:14;24.42;;;13.75;;
31990;SDS011;18508;49.386;8.370;2022-10-30T06:23:16;22.92;;;12.10;;
31990;SDS011;18508;49.386;8.370;2022-10-30T06:25:45;22.75;;;12.50;;
31990;SDS011;18508;49.386;8.370;2022-10-30T06:28:19;22.65;;;12.52;;
31990;SDS011;18508;49.386;8.370;2022-10-30T06:30:49;20.10;;;11.95;;
31990;SDS011;18508;49.386;8.370;2022-10-30T06:33:25;25.13;;;13.43;;
31990;SDS011;18508;49.386;8.370;2022-10-30T06:36:01;23.60;;;12.98;;
31990;SDS011;18508;49.386;8.370;2022-10-30T06:38:33;21.77;;;12.52;;
31990;SDS011;18508;49.386;8.370;2022-10-30T06:41:07;25.05;;;13.35;;
31990;SDS011;18508;49.386;8.370;2022-10-30T06:43:38;25.45;;;13.57;;
31990;SDS011;18508;49.386;8.370;2022-10-30T06:46:08;19.48;;;12.50;;
31990;SDS011;18508;49.386;8.370;2022-10-30T06:48:37;20.88;;;12.52;;
31990;SDS011;18508;49.386;8.370;2022-10-30T06:51:09;21.45;;;12.85;;
31990;SDS011;18508;49.386;8.370;2022-10-30T06:53:41;23.55;;;13.85;;
31990;SDS011;18508;49.386;8.370;2022-10-30T06:56:09;32.20;;;14.50;;
31990;SDS011;18508;49.386;8.370;2022-10-30T06:58:45;24.23;;;13.27;;
31990;SDS011;18508;49.386;8.370;2022-10-30T07:01:25;21.67;;;13.13;;
31990;SDS011;18508;49.386;8.370;2022-10-30T07:03:58;21.95;;;12.05;;
31990;SDS011;18508;49.386;8.370;2022-10-30T07:06:28;26.63;;;14.05;;
31990;SDS011;18508;49.386;8.370;2022-10-30T07:09:02;27.83;;;13.40;;
31990;SDS011;18508;49.386;8.370;2022-10-30T07:11:32;24.88;;;13.00;;
31990;SDS011;18508;49.386;8.370;2022-10-30T07:14:09;29.13;;;14.25;;
31990;SDS011;18508;49.386;8.370;2022-10-30T07:16:39;26.25;;;13.75;;
31990;SDS011;18508;49.386;8.370;2022-10-30T07:19:07;31.38;;;15.05;;
31990;SDS011;18508;49.386;8.370;2022-10-30T07:21:39;27.45;;;15.00;;
31990;SDS011;18508;49.386;8.370;2022-10-30T07:24:09;23.33;;;14.35;;
31990;SDS011;18508;49.386;8.370;2022-10-30T07:26:39;25.55;;;14.15;;
31990;SDS011;18508;49.386;8.370;2022-10-30T07:29:18;23.85;;;14.00;;
31990;SDS011;18508;49.386;8.370;2022-10-30T07:31:47;24.33;;;14.15;;
31990;SDS011;18508;49.386;8.370;2022-10-30T07:34:36;26.58;;;13.57;;
31990;SDS011;18508;49.386;8.370;2022-10-30T07:37:06;30.98;;;14.57;;
31990;SDS011;18508;49.386;8.370;2022-10-30T07:39:41;24.48;;;13.73;;
31990;SDS011;18508;49.386;8.370;2022-10-30T07:42:15;22.85;;;13.77;;
31990;SDS011;18508;49.386;8.370;2022-10-30T07:44:48;24.65;;;13.75;;
31990;SDS011;18508;49.386;8.370;2022-10-30T07:47:19;23.73;;;12.95;;
31990;SDS011;18508;49.386;8.370;2022-10-30T07:49:53;25.35;;;13.20;;
31990;SDS011;18508;49.386;8.370;2022-10-30T07:52:22;23.02;;;13.60;;
31990;SDS011;18508;49.386;8.370;2022-10-30T07:54:59;22.27;;;13.07;;
31990;SDS011;18508;49.386;8.370;2022-10-30T07:57:39;21.20;;;11.90;;
31990;SDS011;18508;49.386;8.370;2022-10-30T08:00:26;22.25;;;13.18;;
31990;SDS011;18508;49.386;8.370;2022-10-30T08:03:07;24.25;;;13.38;;
31990;SDS011;18508;49.386;8.370;2022-10-30T08:05:40;23.27;;;12.70;;
31990;SDS011;18508;49.386;8.370;2022-10-30T08:08:14;22.45;;;12.85;;
31990;SDS011;18508;49.386;8.370;2022-10-30T08:10:47;26.50;;;13.10;;
31990;SDS011;18508;49.386;8.370;2022-10-30T08:13:17;21.60;;;12.43;;
31990;SDS011;18508;49.386;8.370;2022-10-30T08:15:48;24.70;;;12.77;;
31990;SDS011;18508;49.386;8.370;2022-10-30T08:18:18;21.48;;;12.77;;
31990;SDS011;18508;49.386;8.370;2022-10-30T08:20:49;18.92;;;11.85;;
31990;SDS011;18508;49.386;8.370;2022-10-30T08:23:18;20.42;;;11.75;;
31990;SDS011;18508;49.386;8.370;2022-10-30T08:25:48;22.33;;;12.38;;
31990;SDS011;18508;49.386;8.370;2022-10-30T08:28:21;20.33;;;11.73;;
31990;SDS011;18508;49.386;8.370;2022-10-30T08:30:59;23.27;;;12.30;;
31990;SDS011;18508;49.386;8.370;2022-10-30T08:33:30;18.85;;;11.02;;
31990;SDS011;18508;49.386;8.370;2022-10-30T08:36:01;18.23;;;10.75;;
31990;SDS011;18508;49.386;8.370;2022-10-30T08:38:31;20.77;;;11.15;;
31990;SDS011;18508;49.386;8.370;2022-10-30T08:41:05;17.60;;;10.52;;
31990;SDS011;18508;49.386;8.370;2022-10-30T08:43:34;18.25;;;9.70;;
31990;SDS011;18508;49.386;8.370;2022-10-30T08:46:06;20.65;;;9.85;;
31990;SDS011;18508;49.386;8.370;2022-10-30T08:48:38;14.88;;;9.65;;
31990;SDS011;18508;49.386;8.370;2022-10-30T08:51:10;16.45;;;9.25;;
31990;SDS011;18508;49.386;8.370;2022-10-30T08:53:46;20.33;;;8.90;;
31990;SDS011;18508;49.386;8.370;2022-10-30T08:56:24;14.40;;;8.82;;
31990;SDS011;18508;49.386;8.370;2022-10-30T08:58:56;16.88;;;8.77;;
31990;SDS011;18508;49.386;8.370;2022-10-30T09:01:38;15.98;;;7.68;;
31990;SDS011;18508;49.386;8.370;2022-10-30T09:04:09;14.05;;;7.88;;
31990;SDS011;18508;49.386;8.370;2022-10-30T09:06:37;15.00;;;7.97;;
31990;SDS011;18508;49.386;8.370;2022-10-30T09:09:05;13.23;;;7.80;;
31990;SDS011;18508;49.386;8.370;2022-10-30T09:11:35;14.00;;;7.75;;
31990;SDS011;18508;49.386;8.370;2022-10-30T09:14:06;15.38;;;7.20;;
31990;SDS011;18508;49.386;8.370;2022-10-30T09:16:36;15.00;;;7.82;;
31990;SDS011;18508;49.386;8.370;2022-10-30T09:19:06;14.65;;;7.15;;
31990;SDS011;18508;49.386;8.370;2022-10-30T09:21:41;14.27;;;7.00;;
31990;SDS011;18508;49.386;8.370;2022-10-30T09:24:10;13.07;;;7.40;;
31990;SDS011;18508;49.386;8.370;2022-10-30T09:26:39;11.90;;;6.32;;
31990;SDS011;18508;49.386;8.370;2022-10-30T09:29:07;14.48;;;7.88;;
31990;SDS011;18508;49.386;8.370;2022-10-30T09:31:38;13.20;;;6.90;;
31990;SDS011;18508;49.386;8.370;2022-10-30T09:34:09;13.38;;;7.07;;
31990;SDS011;18508;49.386;8.370;2022-10-30T09:36:39;12.10;;;6.65;;
31990;SDS011;18508;49.386;8.370;2022-10-30T09:39:10;14.90;;;6.90;;
31990;SDS011;18508;49.386;8.370;2022-10-30T09:41:44;14.27;;;7.25;;
31990;SDS011;18508;49.386;8.370;2022-10-30T09:44:33;13.40;;;6.70;;
31990;SDS011;18508;49.386;8.370;2022-10-30T09:47:34;16.67;;;7.40;;
31990;SDS011;18508;49.386;8.370;2022-10-30T09:50:21;13.23;;;7.05;;
31990;SDS011;18508;49.386;8.370;2022-10-30T09:52:56;11.63;;;6.50;;
31990;SDS011;18508;49.386;8.370;2022-10-30T09:55:39;12.05;;;6.38;;
31990;SDS011;18508;49.386;8.370;2022-10-30T09:58:16;12.88;;;7.07;;
31990;SDS011;18508;49.386;8.370;2022-10-30T10:00:49;12.02;;;7.15;;
31990;SDS011;18508;49.386;8.370;2022-10-30T10:03:36;13.27;;;6.53;;
31990;SDS011;18508;49.386;8.370;2022-10-30T10:06:20;9.82;;;6.15;;
31990;SDS011;18508;49.386;8.370;2022-10-30T10:08:54;10.27;;;6.10;;
31990;SDS011;18508;49.386;8.370;2022-10-30T10:11:28;11.52;;;6.30;;
31990;SDS011;18508;49.386;8.370;2022-10-30T10:14:02;12.68;;;6.25;;
31990;SDS011;18508;49.386;8.370;2022-10-30T10:16:37;16.33;;;7.03;;
31990;SDS011;18508;49.386;8.370;2022-10-30T10:19:15;12.15;;;6.20;;
31990;SDS011;18508;49.386;8.370;2022-10-30T10:21:56;13.95;;;6.28;;
31990;SDS011;18508;49.386;8.370;2022-10-30T10:24:27;12.82;;;6.32;;
31990;SDS011;18508;49.386;8.370;2022-10-30T10:27:01;11.43;;;6.47;;
31990;SDS011;18508;49.386;8.370;2022-10-30T10:29:39;10.98;;;6.25;;
31990;SDS011;18508;49.386;8.370;2022-10-30T10:32:26;13.02;;;6.53;;
31990;SDS011;18508;49.386;8.370;2022-10-30T10:38:12;13.25;;;5.70;;
31990;SDS011;18508;49.386;8.370;2022-10-30T10:43:33;10.75;;;5.25;;
31990;SDS011;18508;49.386;8.370;2022-10-30T10:46:23;12.43;;;5.13;;
31990;SDS011;18508;49.386;8.370;2022-10-30T10:49:05;12.75;;;5.25;;
31990;SDS011;18508;49.386;8.370;2022-10-30T10:51:49;13.85;;;5.28;;
31990;SDS011;18508;49.386;8.370;2022-10-30T10:54:24;9.35;;;5.00;;
31990;SDS011;18508;49.386;8.370;2022-10-30T10:56:58;14.75;;;5.60;;
31990;SDS011;18508;49.386;8.370;2022-10-30T10:59:30;17.38;;;5.40;;
31990;SDS011;18508;49.386;8.370;2022-10-30T11:02:10;9.57;;;5.07;;
31990;SDS011;18508;49.386;8.370;2022-10-30T11:04:56;10.85;;;5.00;;
31990;SDS011;18508;49.386;8.370;2022-10-30T11:07:31;8.43;;;4.30;;
31990;SDS011;18508;49.386;8.370;2022-10-30T11:10:10;9.68;;;4.63;;
31990;SDS011;18508;49.386;8.370;2022-10-30T11:12:40;10.80;;;4.25;;
31990;SDS011;18508;49.386;8.370;2022-10-30T11:15:16;12.45;;;4.97;;
31990;SDS011;18508;49.386;8.370;2022-10-30T11:18:03;13.60;;;4.88;;
31990;SDS011;18508;49.386;8.370;2022-10-30T11:20:39;9.77;;;4.22;;
31990;SDS011;18508;49.386;8.370;2022-10-30T11:26:24;10.82;;;4.70;;
31990;SDS011;18508;49.386;8.370;2022-10-30T11:29:12;12.48;;;4.70;;
31990;SDS011;18508;49.386;8.370;2022-10-30T11:31:59;12.77;;;4.57;;
31990;SDS011;18508;49.386;8.370;2022-10-30T11:34:32;8.77;;;3.80;;
31990;SDS011;18508;49.386;8.370;2022-10-30T11:37:02;11.43;;;4.15;;
31990;SDS011;18508;49.386;8.370;2022-10-30T11:42:27;10.27;;;4.03;;
31990;SDS011;18508;49.386;8.370;2022-10-30T11:44:59;8.98;;;4.10;;
31990;SDS011;18508;49.386;8.370;2022-10-30T11:47:32;8.38;;;4.13;;
31990;SDS011;18508;49.386;8.370;2022-10-30T11:50:13;9.10;;;3.92;;
31990;SDS011;18508;49.386;8.370;2022-10-30T11:52:45;9.15;;;3.63;;
31990;SDS011;18508;49.386;8.370;2022-10-30T11:55:25;10.88;;;4.25;;
31990;SDS011;18508;49.386;8.370;2022-10-30T11:57:58;10.05;;;3.30;;
31990;SDS011;18508;49.386;8.370;2022-10-30T12:00:30;9.95;;;3.90;;
31990;SDS011;18508;49.386;8.370;2022-10-30T12:03:02;6.43;;;3.60;;
31990;SDS011;18508;49.386;8.370;2022-10-30T12:05:35;8.45;;;4.47;;
31990;SDS011;18508;49.386;8.370;2022-10-30T12:08:16;8.07;;;4.10;;
31990;SDS011;18508;49.386;8.370;2022-10-30T12:11:03;10.45;;;4.07;;
31990;SDS011;18508;49.386;8.370;2022-10-30T12:13:39;7.85;;;3.78;;
31990;SDS011;18508;49.386;8.370;2022-10-30T12:16:17;8.95;;;3.33;;
31990;SDS011;18508;49.386;8.370;2022-10-30T12:18:52;9.43;;;3.80;;
31990;SDS011;18508;49.386;8.370;2022-10-30T12:21:29;7.40;;;4.20;;
31990;SDS011;18508;49.386;8.370;2022-10-30T12:24:06;7.82;;;3.53;;
31990;SDS011;18508;49.386;8.370;2022-10-30T12:26:46;9.13;;;4.03;;
31990;SDS011;18508;49.386;8.370;2022-10-30T12:29:21;8.77;;;4.03;;
31990;SDS011;18508;49.386;8.370;2022-10-30T12:32:17;6.75;;;3.85;;
31990;SDS011;18508;49.386;8.370;2022-10-30T12:34:48;8.43;;;3.88;;
31990;SDS011;18508;49.386;8.370;2022-10-30T12:37:23;10.95;;;4.53;;
31990;SDS011;18508;49.386;8.370;2022-10-30T12:39:59;8.80;;;4.28;;
31990;SDS011;18508;49.386;8.370;2022-10-30T12:42:36;10.75;;;3.92;;
31990;SDS011;18508;49.386;8.370;2022-10-30T12:45:11;9.80;;;3.83;;
31990;SDS011;18508;49.386;8.370;2022-10-30T12:47:47;7.32;;;4.00;;
31990;SDS011;18508;49.386;8.370;2022-10-30T12:50:21;9.23;;;4.05;;
31990;SDS011;18508;49.386;8.370;2022-10-30T12:52:55;6.65;;;3.42;;
31990;SDS011;18508;49.386;8.370;2022-10-30T12:55:30;7.85;;;3.58;;
31990;SDS011;18508;49.386;8.370;2022-10-30T12:58:13;13.00;;;3.40;;
31990;SDS011;18508;49.386;8.370;2022-10-30T13:00:52;10.45;;;3.35;;
31990;SDS011;18508;49.386;8.370;2022-10-30T13:03:28;8.40;;;3.67;;
31990;SDS011;18508;49.386;8.370;2022-10-30T13:06:04;8.48;;;3.25;;
31990;SDS011;18508;49.386;8.370;2022-10-30T13:08:38;8.93;;;4.00;;
31990;SDS011;18508;49.386;8.370;2022-10-30T13:11:18;6.82;;;3.50;;
31990;SDS011;18508;49.386;8.370;2022-10-30T13:13:56;10.60;;;4.82;;
31990;SDS011;18508;49.386;8.370;2022-10-30T13:16:26;6.60;;;3.63;;
31990;SDS011;18508;49.386;8.370;2022-10-30T13:18:56;8.98;;;3.35;;
31990;SDS011;18508;49.386;8.370;2022-10-30T13:21:29;8.63;;;3.22;;
31990;SDS011;18508;49.386;8.370;2022-10-30T13:24:03;7.35;;;3.35;;
31990;SDS011;18508;49.386;8.370;2022-10-30T13:26:38;6.78;;;3.67;;
31990;SDS011;18508;49.386;8.370;2022-10-30T13:29:14;7.85;;;3.15;;
31990;SDS011;18508;49.386;8.370;2022-10-30T13:31:50;8.77;;;3.67;;
31990;SDS011;18508;49.386;8.370;2022-10-30T13:34:31;9.18;;;3.30;;
31990;SDS011;18508;49.386;8.370;2022-10-30T13:37:09;8.05;;;3.33;;
31990;SDS011;18508;49.386;8.370;2022-10-30T13:39:42;8.82;;;3.97;;
31990;SDS011;18508;49.386;8.370;2022-10-30T13:42:27;24.40;;;15.80;;
31990;SDS011;18508;49.386;8.370;2022-10-30T13:45:21;21.23;;;15.15;;
31990;SDS011;18508;49.386;8.370;2022-10-30T13:50:51;10.18;;;6.38;;
31990;SDS011;18508;49.386;8.370;2022-10-30T13:53:42;10.20;;;4.18;;
31990;SDS011;18508;49.386;8.370;2022-10-30T13:56:14;7.78;;;4.05;;
31990;SDS011;18508;49.386;8.370;2022-10-30T13:58:45;9.15;;;3.53;;
31990;SDS011;18508;49.386;8.370;2022-10-30T14:01:23;8.32;;;3.50;;
31990;SDS011;18508;49.386;8.370;2022-10-30T14:04:03;6.03;;;3.05;;
31990;SDS011;18508;49.386;8.370;2022-10-30T14:06:43;10.70;;;4.03;;
31990;SDS011;18508;49.386;8.370;2022-10-30T14:09:21;6.47;;;3.85;;
31990;SDS011;18508;49.386;8.370;2022-10-30T14:15:04;7.28;;;3.38;;
31990;SDS011;18508;49.386;8.370;2022-10-30T14:17:34;10.23;;;3.63;;
31990;SDS011;18508;49.386;8.370;2022-10-30T14:20:24;7.60;;;3.70;;
31990;SDS011;18508;49.386;8.370;2022-10-30T14:23:07;6.70;;;3.13;;
31990;SDS011;18508;49.386;8.370;2022-10-30T14:25:52;11.30;;;5.90;;
31990;SDS011;18508;49.386;8.370;2022-10-30T14:28:47;9.90;;;4.78;;
31990;SDS011;18508;49.386;8.370;2022-10-30T14:31:32;13.15;;;7.72;;
31990;SDS011;18508;49.386;8.370;2022-10-30T14:40:33;26.38;;;15.02;;
31990;SDS011;18508;49.386;8.370;2022-10-30T14:43:19;19.92;;;11.65;;
31990;SDS011;18508;49.386;8.370;2022-10-30T14:46:37;12.60;;;6.22;;
31990;SDS011;18508;49.386;8.370;2022-10-30T14:49:36;11.43;;;6.25;;
31990;SDS011;18508;49.386;8.370;2022-10-30T14:54:58;9.48;;;4.05;;
31990;SDS011;18508;49.386;8.370;2022-10-30T14:57:45;8.48;;;3.38;;
31990;SDS011;18508;49.386;8.370;2022-10-30T15:03:24;9.23;;;4.70;;
31990;SDS011;18508;49.386;8.370;2022-10-30T15:06:05;10.07;;;4.72;;
31990;SDS011;18508;49.386;8.370;2022-10-30T15:08:54;7.82;;;3.63;;
31990;SDS011;18508;49.386;8.370;2022-10-30T15:11:44;7.30;;;3.17;;
31990;SDS011;18508;49.386;8.370;2022-10-30T15:14:37;7.20;;;3.67;;
31990;SDS011;18508;49.386;8.370;2022-10-30T15:17:22;9.93;;;3.58;;
31990;SDS011;18508;49.386;8.370;2022-10-30T15:19:55;8.23;;;3.90;;
31990;SDS011;18508;49.386;8.370;2022-10-30T15:22:27;4.90;;;3.15;;
31990;SDS011;18508;49.386;8.370;2022-10-30T15:24:59;6.63;;;3.40;;
31990;SDS011;18508;49.386;8.370;2022-10-30T15:27:30;8.30;;;3.28;;
31990;SDS011;18508;49.386;8.370;2022-10-30T15:30:05;8.32;;;3.00;;
31990;SDS011;18508;49.386;8.370;2022-10-30T15:32:42;12.13;;;4.03;;
31990;SDS011;18508;49.386;8.370;2022-10-30T15:35:13;8.82;;;3.88;;
31990;SDS011;18508;49.386;8.370;2022-10-30T15:40:29;8.38;;;4.53;;
31990;SDS011;18508;49.386;8.370;2022-10-30T15:43:00;10.80;;;4.95;;
31990;SDS011;18508;49.386;8.370;2022-10-30T15:45:35;12.77;;;5.68;;
31990;SDS011;18508;49.386;8.370;2022-10-30T15:48:07;7.25;;;4.20;;